Time,TemperatureF,DewpointF,PressureIn,WindDirection,WindDirectionDegrees,WindSpeedMPH,WindSpeedGustMPH,Humidity,HourlyPrecipIn,Conditions,Clouds,dailyrainin,SoftwareType,DateUTC
2013-11-25 00:08:00,28.2,10.6,30.28,East,90,5.8,-999.0,47,-99.99,,,0.00,Acu-Link.com,2013-11-25 06:08:00,
2013-11-25 00:23:00,28.4,10.3,30.28,SSE,157,7.8,-999.0,46,-99.99,,,0.00,Acu-Link.com,2013-11-25 06:23:00,
2013-11-25 00:38:00,28.6,11.0,30.28,SE,135,7.8,-999.0,47,-99.99,,,0.00,Acu-Link.com,2013-11-25 06:38:00,
2013-11-25 00:54:00,28.6,11.0,30.26,SSE,157,3.7,-999.0,47,-99.99,,,0.00,Acu-Link.com,2013-11-25 06:54:00,
2013-11-25 01:09:00,28.6,11.0,30.26,South,180,4.7,-999.0,47,-99.99,,,0.00,Acu-Link.com,2013-11-25 07:09:00,
2013-11-25 01:24:00,28.6,11.4,30.26,SSE,157,5.3,-999.0,48,-99.99,,,0.00,Acu-Link.com,2013-11-25 07:24:00,
2013-11-25 01:39:00,28.6,11.4,30.26,South,180,5.3,-999.0,48,-99.99,,,0.00,Acu-Link.com,2013-11-25 07:39:00,
2013-11-25 01:54:00,28.6,11.4,30.25,SSE,157,6.8,-999.0,48,-99.99,,,0.00,Acu-Link.com,2013-11-25 07:54:00,
2013-11-25 02:10:00,28.6,11.0,30.25,SSE,157,4.7,-999.0,47,-99.99,,,0.00,Acu-Link.com,2013-11-25 08:10:00,
2013-11-25 02:25:00,28.6,11.0,30.24,SSE,157,6.3,-999.0,47,-99.99,,,0.00,Acu-Link.com,2013-11-25 08:25:00,
2013-11-25 02:40:00,28.6,11.0,30.24,SE,135,4.2,-999.0,47,-99.99,,,0.00,Acu-Link.com,2013-11-25 08:40:00,
2013-11-25 02:55:00,28.6,11.9,30.23,ESE,112,3.2,-999.0,49,-99.99,,,0.00,Acu-Link.com,2013-11-25 08:55:00,
2013-11-25 03:11:00,28.6,11.9,30.23,SSE,157,6.8,-999.0,49,-99.99,,,0.00,Acu-Link.com,2013-11-25 09:11:00,
2013-11-25 03:26:00,28.6,12.3,30.23,East,90,3.7,-999.0,50,-99.99,,,0.00,Acu-Link.com,2013-11-25 09:26:00,
2013-11-25 03:41:00,28.6,12.3,30.21,South,180,6.3,-999.0,50,-99.99,,,0.00,Acu-Link.com,2013-11-25 09:41:00,
2013-11-25 03:57:00,28.6,12.3,30.23,South,180,6.8,-999.0,50,-99.99,,,0.00,Acu-Link.com,2013-11-25 09:57:00,
2013-11-25 04:12:00,28.6,13.2,30.22,SSE,157,6.3,-999.0,52,-99.99,,,0.00,Acu-Link.com,2013-11-25 10:12:00,
2013-11-25 04:28:00,28.6,13.2,30.22,South,180,8.3,-999.0,52,-99.99,,,0.00,Acu-Link.com,2013-11-25 10:28:00,
2013-11-25 04:43:00,28.6,13.2,30.22,South,180,3.7,-999.0,52,-99.99,,,0.00,Acu-Link.com,2013-11-25 10:43:00,
2013-11-25 04:58:00,28.6,13.7,30.20,SE,135,6.8,-999.0,53,-99.99,,,0.00,Acu-Link.com,2013-11-25 10:58:00,
2013-11-25 05:13:00,28.6,14.1,30.21,SSE,157,5.3,-999.0,54,-99.99,,,0.00,Acu-Link.com,2013-11-25 11:13:00,
2013-11-25 05:28:00,28.6,14.1,30.20,SE,135,6.8,-999.0,54,-99.99,,,0.00,Acu-Link.com,2013-11-25 11:28:00,
2013-11-25 05:44:00,28.6,14.1,30.18,SE,135,8.3,-999.0,54,-99.99,,,0.00,Acu-Link.com,2013-11-25 11:44:00,
2013-11-25 05:59:00,28.6,14.5,30.17,SE,135,8.3,-999.0,55,-99.99,,,0.00,Acu-Link.com,2013-11-25 11:59:00,
2013-11-25 06:14:00,28.6,14.5,30.18,SSW,202,2.7,-999.0,55,-99.99,,,0.00,Acu-Link.com,2013-11-25 12:14:00,
2013-11-25 06:30:00,28.6,14.9,30.19,South,180,7.8,-999.0,56,-99.99,,,0.00,Acu-Link.com,2013-11-25 12:30:00,
2013-11-25 06:45:00,28.6,14.9,30.19,South,180,5.3,-999.0,56,-99.99,,,0.00,Acu-Link.com,2013-11-25 12:45:00,
2013-11-25 07:00:00,28.8,15.5,30.21,South,180,3.2,-999.0,57,-99.99,,,0.00,Acu-Link.com,2013-11-25 13:00:00,
2013-11-25 07:15:00,28.9,15.6,30.20,SSE,157,5.8,-999.0,57,-99.99,,,0.00,Acu-Link.com,2013-11-25 13:15:00,
2013-11-25 07:30:00,28.9,16.4,30.20,SSE,157,3.7,-999.0,59,-99.99,,,0.00,Acu-Link.com,2013-11-25 13:30:00,
2013-11-25 07:46:00,29.1,15.8,30.21,SSE,157,6.3,-999.0,57,-99.99,,,0.00,Acu-Link.com,2013-11-25 13:46:00,
2013-11-25 08:01:00,29.3,16.4,30.20,SSE,157,5.3,-999.0,58,-99.99,,,0.00,Acu-Link.com,2013-11-25 14:01:00,
2013-11-25 08:16:00,29.7,15.9,30.20,SSE,157,3.2,-999.0,56,-99.99,,,0.00,Acu-Link.com,2013-11-25 14:16:00,
2013-11-25 08:31:00,30.0,15.8,30.21,South,180,4.7,-999.0,55,-99.99,,,0.00,Acu-Link.com,2013-11-25 14:31:00,
2013-11-25 08:46:00,30.0,16.2,30.19,ESE,112,6.8,-999.0,56,-99.99,,,0.00,Acu-Link.com,2013-11-25 14:46:00,
2013-11-25 09:01:00,30.0,16.2,30.19,SE,135,5.3,-999.0,56,-99.99,,,0.00,Acu-Link.com,2013-11-25 15:01:00,
2013-11-25 09:17:00,29.8,17.2,30.20,South,180,7.8,-999.0,59,-99.99,,,0.00,Acu-Link.com,2013-11-25 15:17:00,
2013-11-25 09:32:00,29.8,18.0,30.20,SSW,202,3.7,-999.0,61,-99.99,,,0.00,Acu-Link.com,2013-11-25 15:32:00,
2013-11-25 09:48:00,30.2,19.1,30.20,WSW,247,4.2,-999.0,63,-99.99,,,0.00,Acu-Link.com,2013-11-25 15:48:00,
2013-11-25 10:03:00,29.8,19.5,30.21,South,180,4.7,-999.0,65,-99.99,,,0.00,Acu-Link.com,2013-11-25 16:03:00,
2013-11-25 10:18:00,29.7,21.1,30.22,South,180,2.7,-999.0,70,-99.99,,,0.00,Acu-Link.com,2013-11-25 16:18:00,
2013-11-25 10:34:00,29.8,22.9,30.21,East,90,7.8,-999.0,75,-99.99,,,0.00,Acu-Link.com,2013-11-25 16:34:00,
2013-11-25 10:49:00,30.7,24.0,30.20,South,180,3.2,-999.0,76,-99.99,,,0.00,Acu-Link.com,2013-11-25 16:49:00,
2013-11-25 11:04:00,30.7,24.4,30.19,South,180,5.8,-999.0,77,-99.99,,,0.00,Acu-Link.com,2013-11-25 17:04:00,
2013-11-25 11:20:00,32.4,25.4,30.18,South,180,4.2,-999.0,75,-99.99,,,0.00,Acu-Link.com,2013-11-25 17:20:00,
2013-11-25 11:35:00,32.5,25.2,30.17,SSE,157,3.2,-999.0,74,-99.99,,,0.00,Acu-Link.com,2013-11-25 17:35:00,
2013-11-25 11:50:00,33.1,24.7,30.16,SSE,157,6.8,-999.0,71,-99.99,,,0.00,Acu-Link.com,2013-11-25 17:50:00,
2013-11-25 12:05:00,33.1,24.4,30.16,SE,135,5.8,-999.0,70,-99.99,,,0.00,Acu-Link.com,2013-11-25 18:05:00,
2013-11-25 12:20:00,32.7,24.4,30.15,SSW,202,3.7,-999.0,71,-99.99,,,0.00,Acu-Link.com,2013-11-25 18:20:00,
2013-11-25 12:35:00,34.2,25.1,30.14,SSE,157,4.2,-999.0,69,-99.99,,,0.00,Acu-Link.com,2013-11-25 18:35:00,
2013-11-25 12:50:00,36.0,25.4,30.13,South,180,1.1,-999.0,65,-99.99,,,0.00,Acu-Link.com,2013-11-25 18:50:00,
2013-11-25 13:06:00,37.6,26.2,30.13,WSW,247,3.2,-999.0,63,-99.99,,,0.00,Acu-Link.com,2013-11-25 19:06:00,
2013-11-25 13:21:00,38.5,26.6,30.12,West,270,2.2,-999.0,62,-99.99,,,0.00,Acu-Link.com,2013-11-25 19:21:00,
2013-11-25 13:36:00,36.7,26.4,30.11,SW,225,3.7,-999.0,66,-99.99,,,0.00,Acu-Link.com,2013-11-25 19:36:00,
2013-11-25 13:51:00,37.8,27.1,30.10,SSW,202,4.2,-999.0,65,-99.99,,,0.00,Acu-Link.com,2013-11-25 19:51:00,
2013-11-25 14:07:00,37.8,27.5,30.10,WSW,247,3.7,-999.0,66,-99.99,,,0.00,Acu-Link.com,2013-11-25 20:07:00,
2013-11-25 14:22:00,37.8,27.8,30.10,SW,225,3.7,-999.0,67,-99.99,,,0.00,Acu-Link.com,2013-11-25 20:22:00,
2013-11-25 14:37:00,37.8,27.8,30.10,SW,225,3.2,-999.0,67,-99.99,,,0.00,Acu-Link.com,2013-11-25 20:37:00,
2013-11-25 14:52:00,37.9,27.9,30.10,South,180,3.2,-999.0,67,-99.99,,,0.00,Acu-Link.com,2013-11-25 20:52:00,
2013-11-25 15:08:00,37.9,28.7,30.10,WNW,292,3.7,-999.0,69,-99.99,,,0.00,Acu-Link.com,2013-11-25 21:08:00,
2013-11-25 15:23:00,37.2,28.0,30.11,SW,225,2.2,-999.0,69,-99.99,,,0.00,Acu-Link.com,2013-11-25 21:23:00,
2013-11-25 15:38:00,36.7,27.9,30.13,WSW,247,2.2,-999.0,70,-99.99,,,0.00,Acu-Link.com,2013-11-25 21:38:00,
2013-11-25 15:53:00,36.1,28.0,30.12,NE,45,0.0,-999.0,72,-99.99,,,0.00,Acu-Link.com,2013-11-25 21:53:00,
2013-11-25 16:08:00,36.3,28.2,30.12,South,180,0.0,-999.0,72,-99.99,,,0.00,Acu-Link.com,2013-11-25 22:08:00,
2013-11-25 16:23:00,36.1,28.3,30.11,SW,225,0.0,-999.0,73,-99.99,,,0.00,Acu-Link.com,2013-11-25 22:23:00,
2013-11-25 16:39:00,35.8,28.3,30.11,WNW,292,0.0,-999.0,74,-99.99,,,0.00,Acu-Link.com,2013-11-25 22:39:00,
2013-11-25 16:54:00,35.2,28.4,30.11,West,270,2.2,-999.0,76,-99.99,,,0.00,Acu-Link.com,2013-11-25 22:54:00,
2013-11-25 17:09:00,35.1,28.6,30.12,NW,315,1.7,-999.0,77,-99.99,,,0.00,Acu-Link.com,2013-11-25 23:09:00,
2013-11-25 17:24:00,34.9,28.4,30.13,WNW,292,2.2,-999.0,77,-99.99,,,0.00,Acu-Link.com,2013-11-25 23:24:00,
2013-11-25 17:39:00,34.7,28.2,30.13,NW,315,1.1,-999.0,77,-99.99,,,0.00,Acu-Link.com,2013-11-25 23:39:00,
2013-11-25 17:55:00,34.7,28.2,30.13,NNW,337,0.0,-999.0,77,-99.99,,,0.00,Acu-Link.com,2013-11-25 23:55:00,
2013-11-25 18:10:00,34.7,28.2,30.13,WNW,292,0.0,-999.0,77,-99.99,,,0.00,Acu-Link.com,2013-11-26 00:10:00,
2013-11-25 18:25:00,34.5,28.0,30.12,NNW,337,0.0,-999.0,77,-99.99,,,0.00,Acu-Link.com,2013-11-26 00:25:00,
2013-11-25 18:40:00,34.5,28.4,30.11,NNW,337,0.0,-999.0,78,-99.99,,,0.00,Acu-Link.com,2013-11-26 00:40:00,
2013-11-25 19:00:00,34.2,28.1,30.11,West,270,2.7,-999.0,78,-99.99,,,0.00,Acu-Link.com,2013-11-26 01:00:00,
2013-11-25 19:28:00,34.2,28.1,30.11,West,270,0.0,-999.0,78,-99.99,,,0.00,Acu-Link.com,2013-11-26 01:28:00,
2013-11-25 19:43:00,33.4,27.9,30.11,West,270,0.0,-999.0,80,-99.99,,,0.00,Acu-Link.com,2013-11-26 01:43:00,
2013-11-25 19:58:00,33.3,27.8,30.11,WNW,292,0.0,-999.0,80,-99.99,,,0.00,Acu-Link.com,2013-11-26 01:58:00,
2013-11-25 20:14:00,33.1,27.9,30.11,West,270,0.0,-999.0,81,-99.99,,,0.00,Acu-Link.com,2013-11-26 02:14:00,
2013-11-25 20:29:00,33.1,27.9,30.11,West,270,1.1,-999.0,81,-99.99,,,0.00,Acu-Link.com,2013-11-26 02:29:00,
2013-11-25 20:44:00,33.3,28.1,30.10,WNW,292,0.0,-999.0,81,-99.99,,,0.00,Acu-Link.com,2013-11-26 02:44:00,
2013-11-25 20:59:00,33.6,28.1,30.11,South,180,0.0,-999.0,80,-99.99,,,0.00,Acu-Link.com,2013-11-26 02:59:00,
2013-11-25 21:14:00,33.6,28.1,30.11,SSW,202,0.0,-999.0,80,-99.99,,,0.00,Acu-Link.com,2013-11-26 03:14:00,
2013-11-25 21:30:00,33.6,28.4,30.10,NW,315,0.0,-999.0,81,-99.99,,,0.00,Acu-Link.com,2013-11-26 03:30:00,
2013-11-25 21:45:00,33.6,28.4,30.11,West,270,0.0,-999.0,81,-99.99,,,0.00,Acu-Link.com,2013-11-26 03:45:00,
2013-11-25 22:00:00,33.4,27.9,30.11,West,270,0.0,-999.0,80,-99.99,,,0.00,Acu-Link.com,2013-11-26 04:00:00,
2013-11-25 22:15:00,33.3,28.1,30.11,WNW,292,0.0,-999.0,81,-99.99,,,0.00,Acu-Link.com,2013-11-26 04:15:00,
2013-11-25 22:30:00,33.1,28.2,30.10,West,270,0.0,-999.0,82,-99.99,,,0.00,Acu-Link.com,2013-11-26 04:30:00,
2013-11-25 22:45:00,33.1,28.2,30.11,SW,225,0.0,-999.0,82,-99.99,,,0.00,Acu-Link.com,2013-11-26 04:45:00,
2013-11-25 23:01:00,33.1,27.9,30.10,NW,315,0.0,-999.0,81,-99.99,,,0.00,Acu-Link.com,2013-11-26 05:01:00,
2013-11-25 23:16:00,33.3,28.4,30.10,NW,315,0.0,-999.0,82,-99.99,,,0.00,Acu-Link.com,2013-11-26 05:16:00,
2013-11-25 23:31:00,33.3,28.1,30.10,West,270,0.0,-999.0,81,-99.99,,,0.00,Acu-Link.com,2013-11-26 05:31:00,
2013-11-25 23:46:00,33.4,28.2,30.10,NNW,337,0.0,-999.0,81,-99.99,,,0.00,Acu-Link.com,2013-11-26 05:46:00,